Time;durP1;ratioP1;P1;durP2;ratioP2;P2;SDS_P1;SDS_P2;PMS_P1;PMS_P2;Temp;Humidity;BMP_temperature;BMP_pressure;BME280_temperature;BME280_humidity;BME280_pressure;Samples;Min_cycle;Max_cycle;Signal;HPM_P1;HPM_P2
2022/03/19 00:00:36;;;;;;;11.40;6.77;;;8.60;99.90;;;;;;5002054;28;22390;-69
2022/03/19 00:03:03;;;;;;;10.77;5.00;;;8.60;99.90;;;;;;5006683;28;20472;-68
2022/03/19 00:05:30;;;;;;;8.37;6.57;;;8.50;99.90;;;;;;4999684;28;20988;-70
2022/03/19 00:07:59;;;;;;;8.20;5.80;;;8.30;99.90;;;;;;5012799;28;20434;-70
2022/03/19 00:10:26;;;;;;;13.30;7.77;;;8.30;99.90;;;;;;5004052;28;20451;-70
2022/03/19 00:12:54;;;;;;;11.10;5.10;;;8.30;99.90;;;;;;5004895;28;20452;-69
2022/03/19 00:15:20;;;;;;;8.53;4.93;;;8.30;99.90;;;;;;5002456;28;20558;-69
2022/03/19 00:17:47;;;;;;;9.57;5.37;;;8.20;99.90;;;;;;5001604;28;20496;-68
2022/03/19 00:20:14;;;;;;;11.27;6.50;;;8.20;99.90;;;;;;5003810;28;20459;-69
2022/03/19 00:22:45;;;;;;;7.37;4.80;;;8.20;99.90;;;;;;5001399;28;21139;-69
2022/03/19 00:25:13;;;;;;;7.10;6.30;;;8.20;99.90;;;;;;4997933;28;20485;-70
2022/03/19 00:27:41;;;;;;;9.60;5.40;;;8.20;99.90;;;;;;5003434;28;20468;-69
2022/03/19 00:30:08;;;;;;;11.67;6.63;;;8.10;99.90;;;;;;4998575;28;20431;-68
2022/03/19 00:32:35;;;;;;;7.70;5.90;;;8.10;99.90;;;;;;5001915;28;20435;-68
2022/03/19 00:35:02;;;;;;;5.17;4.20;;;8.00;99.90;;;;;;4999147;28;20543;-69
2022/03/19 00:37:30;;;;;;;14.80;5.30;;;8.10;99.90;;;;;;5003458;28;20488;-68
2022/03/19 00:39:56;;;;;;;7.53;5.63;;;8.10;99.90;;;;;;5010965;28;20488;-68
2022/03/19 00:42:25;;;;;;;7.03;4.90;;;8.10;99.90;;;;;;5000314;28;20647;-68
2022/03/19 00:44:51;;;;;;;8.37;5.73;;;8.10;99.90;;;;;;5002043;28;20562;-68
2022/03/19 00:47:18;;;;;;;4.93;4.20;;;8.10;99.90;;;;;;5001906;28;20869;-68
2022/03/19 00:49:45;;;;;;;7.60;4.20;;;8.00;99.90;;;;;;4995780;28;20471;-69
2022/03/19 00:52:11;;;;;;;7.33;4.97;;;8.00;99.90;;;;;;5003019;28;20474;-68
2022/03/19 00:54:38;;;;;;;4.87;4.37;;;8.00;99.90;;;;;;5002533;28;20526;-68
2022/03/19 00:57:05;;;;;;;9.37;6.20;;;8.00;99.90;;;;;;5006526;28;20472;-68
2022/03/19 00:59:33;;;;;;;8.43;5.53;;;7.90;99.90;;;;;;5006994;28;20449;-67
2022/03/19 01:02:00;;;;;;;11.53;7.33;;;7.90;99.90;;;;;;4996154;28;20613;-67
2022/03/19 01:04:26;;;;;;;7.77;5.70;;;7.90;99.90;;;;;;5002102;28;20460;-68
2022/03/19 01:06:53;;;;;;;9.17;5.17;;;7.90;99.90;;;;;;5003919;28;20569;-69
2022/03/19 01:09:20;;;;;;;10.13;5.37;;;7.80;99.90;;;;;;5006496;28;20468;-68
2022/03/19 01:11:47;;;;;;;6.13;3.97;;;7.80;99.90;;;;;;5009763;28;20468;-69
2022/03/19 01:14:13;;;;;;;9.03;5.53;;;7.70;99.90;;;;;;5006832;28;20546;-67
2022/03/19 01:16:41;;;;;;;9.63;6.03;;;7.70;99.90;;;;;;5006516;28;20456;-67
2022/03/19 01:19:08;;;;;;;8.20;7.13;;;7.70;99.90;;;;;;4996261;28;20435;-68
2022/03/19 01:21:35;;;;;;;7.40;6.30;;;7.80;99.90;;;;;;5007058;28;20480;-68
2022/03/19 01:24:02;;;;;;;21.33;6.40;;;7.80;99.90;;;;;;5000347;28;20461;-69
2022/03/19 01:26:29;;;;;;;6.80;5.23;;;7.70;99.90;;;;;;5000386;28;20435;-68
2022/03/19 01:28:56;;;;;;;6.53;5.47;;;7.60;99.90;;;;;;5003474;28;20457;-68
2022/03/19 01:31:25;;;;;;;8.67;6.07;;;7.60;99.90;;;;;;5004673;28;20680;-68
2022/03/19 01:33:54;;;;;;;9.13;5.30;;;7.60;99.90;;;;;;5005039;28;20456;-67
2022/03/19 01:36:21;;;;;;;11.07;6.30;;;7.60;99.90;;;;;;5003763;28;20499;-67
2022/03/19 01:38:47;;;;;;;12.20;6.80;;;7.70;99.90;;;;;;5001335;28;20503;-68
2022/03/19 01:41:16;;;;;;;13.00;6.00;;;7.70;99.90;;;;;;5002304;28;20699;-68
2022/03/19 01:43:42;;;;;;;7.73;5.30;;;7.60;99.90;;;;;;5000358;28;21044;-68
2022/03/19 01:46:09;;;;;;;9.93;5.70;;;7.50;99.90;;;;;;5000107;28;20555;-67
2022/03/19 01:48:36;;;;;;;8.60;6.00;;;7.50;99.90;;;;;;4999127;28;20559;-68
2022/03/19 01:51:04;;;;;;;6.67;6.03;;;7.50;99.90;;;;;;4995219;28;20984;-68
2022/03/19 01:53:30;;;;;;;10.10;6.73;;;7.50;99.90;;;;;;5017826;28;20426;-68
2022/03/19 01:55:58;;;;;;;4.93;4.53;;;7.40;99.90;;;;;;5022656;28;20453;-68
2022/03/19 01:58:25;;;;;;;9.23;5.20;;;7.30;99.90;;;;;;5015878;28;21739;-68
2022/03/19 02:00:52;;;;;;;5.73;5.17;;;7.20;99.90;;;;;;5017109;28;20991;-68
2022/03/19 02:03:19;;;;;;;6.70;5.03;;;7.20;99.90;;;;;;5015454;28;20459;-68
2022/03/19 02:05:48;;;;;;;9.37;5.27;;;7.20;99.90;;;;;;5008261;28;20461;-69
2022/03/19 02:08:18;;;;;;;10.17;4.90;;;7.20;99.90;;;;;;5005318;28;20513;-68
2022/03/19 02:10:45;;;;;;;9.50;5.63;;;7.20;99.90;;;;;;4999649;28;20480;-68
2022/03/19 02:13:12;;;;;;;8.63;5.33;;;7.10;99.90;;;;;;5004082;28;20485;-67
2022/03/19 02:15:38;;;;;;;6.20;5.40;;;7.10;99.90;;;;;;4998374;28;20597;-68
2022/03/19 02:18:05;;;;;;;6.33;4.77;;;7.10;99.90;;;;;;5006873;28;21183;-68
2022/03/19 02:20:34;;;;;;;8.07;5.37;;;7.10;99.90;;;;;;5003481;28;20562;-68
2022/03/19 02:25:48;;;;;;;12.60;5.40;;;7.20;99.90;;;;;;5000326;28;20524;-68
2022/03/19 02:28:15;;;;;;;6.50;4.20;;;7.20;99.90;;;;;;5002832;28;20468;-69
2022/03/19 02:30:43;;;;;;;5.40;3.90;;;7.20;99.90;;;;;;4998305;28;20601;-68
2022/03/19 02:33:10;;;;;;;9.47;5.10;;;7.10;99.90;;;;;;4999371;28;20515;-68
2022/03/19 02:35:37;;;;;;;10.50;4.67;;;7.10;99.90;;;;;;4997376;28;20467;-68
2022/03/19 02:38:05;;;;;;;16.10;6.10;;;7.20;99.90;;;;;;4998724;28;20591;-67
2022/03/19 02:40:32;;;;;;;6.57;4.30;;;7.20;99.90;;;;;;4996904;28;20493;-68
2022/03/19 02:42:59;;;;;;;10.77;5.33;;;7.20;99.90;;;;;;5004842;28;20515;-68
2022/03/19 02:45:26;;;;;;;7.60;5.80;;;7.10;99.90;;;;;;4997077;28;20469;-69
2022/03/19 02:48:01;;;;;;;10.23;5.30;;;7.10;99.90;;;;;;5005243;28;20511;-68
2022/03/19 02:50:30;;;;;;;9.77;4.70;;;7.00;99.90;;;;;;4996386;28;20571;-68
2022/03/19 02:52:57;;;;;;;12.50;5.90;;;6.90;99.90;;;;;;4998318;28;20468;-68
2022/03/19 02:55:26;;;;;;;7.73;5.53;;;6.80;99.90;;;;;;4999213;28;21014;-68
2022/03/19 02:57:52;;;;;;;11.37;5.93;;;6.80;99.90;;;;;;5003546;28;20487;-68
2022/03/19 03:00:20;;;;;;;9.27;6.00;;;6.80;99.90;;;;;;4993964;28;20610;-69
2022/03/19 03:02:48;;;;;;;6.60;5.50;;;6.70;99.90;;;;;;4998710;28;20489;-69
2022/03/19 03:05:14;;;;;;;8.20;6.17;;;6.70;99.90;;;;;;4999650;28;20428;-69
2022/03/19 03:07:42;;;;;;;9.63;4.83;;;6.70;99.90;;;;;;4999012;28;20494;-68
2022/03/19 03:10:10;;;;;;;8.20;5.60;;;6.70;99.90;;;;;;4998193;28;20550;-68
2022/03/19 03:12:38;;;;;;;7.50;5.27;;;6.60;99.90;;;;;;4995846;28;20445;-68
2022/03/19 03:15:05;;;;;;;8.00;5.00;;;6.60;99.90;;;;;;4995129;28;20462;-68
2022/03/19 03:17:33;;;;;;;8.77;4.43;;;6.60;99.90;;;;;;5005193;28;20544;-68
2022/03/19 03:20:00;;;;;;;7.73;5.53;;;6.50;99.90;;;;;;5005294;28;21360;-68
2022/03/19 03:22:27;;;;;;;6.67;5.40;;;6.50;99.90;;;;;;5008263;28;21055;-69
2022/03/19 03:24:54;;;;;;;7.77;5.97;;;6.50;99.90;;;;;;4999495;28;20460;-68
2022/03/19 03:27:21;;;;;;;7.60;5.40;;;6.50;99.90;;;;;;5001456;28;20449;-69
2022/03/19 03:29:49;;;;;;;12.23;5.63;;;6.40;99.90;;;;;;5006695;28;20870;-69
2022/03/19 03:32:17;;;;;;;15.47;6.60;;;6.40;99.90;;;;;;4996796;28;20572;-68
2022/03/19 03:34:43;;;;;;;14.73;7.53;;;6.40;99.90;;;;;;5005901;28;20510;-68
2022/03/19 03:37:10;;;;;;;8.33;6.20;;;6.30;99.90;;;;;;5008246;28;20439;-68
2022/03/19 03:39:38;;;;;;;6.90;5.43;;;6.30;99.90;;;;;;5006144;28;20540;-69
2022/03/19 03:42:05;;;;;;;7.67;4.37;;;6.20;99.90;;;;;;5008200;28;20462;-69
2022/03/19 03:44:31;;;;;;;4.27;3.83;;;6.20;99.90;;;;;;5004702;28;20461;-69
2022/03/19 03:46:59;;;;;;;10.80;6.40;;;6.10;99.90;;;;;;5009233;28;20783;-69
2022/03/19 03:49:26;;;;;;;6.60;4.30;;;6.10;99.90;;;;;;5006281;28;21013;-68
2022/03/19 03:51:53;;;;;;;9.77;5.13;;;6.00;99.90;;;;;;4999757;28;20541;-68
2022/03/19 03:54:20;;;;;;;6.43;4.83;;;5.90;99.90;;;;;;4998575;28;21070;-68
2022/03/19 03:56:46;;;;;;;7.33;6.00;;;5.90;99.90;;;;;;5004476;28;20438;-68
2022/03/19 03:59:13;;;;;;;6.70;5.20;;;5.90;99.90;;;;;;5005902;28;20550;-68
2022/03/19 04:01:40;;;;;;;4.93;4.00;;;5.90;99.90;;;;;;5003033;28;20480;-68
2022/03/19 04:04:08;;;;;;;9.20;5.13;;;5.90;99.90;;;;;;5029122;22;20871;-68
2022/03/19 04:06:35;;;;;;;6.17;3.83;;;5.70;99.90;;;;;;5009052;28;21205;-69
2022/03/19 04:09:02;;;;;;;7.17;4.80;;;5.80;99.90;;;;;;5024437;28;20442;-69
2022/03/19 04:11:28;;;;;;;8.27;4.90;;;5.70;99.90;;;;;;5015198;28;20429;-69
2022/03/19 04:13:55;;;;;;;6.07;4.90;;;5.70;99.90;;;;;;5022981;28;20496;-70
2022/03/19 04:16:21;;;;;;;9.37;6.80;;;5.40;99.90;;;;;;5039626;28;20465;-69
2022/03/19 04:18:48;;;;;;;10.03;5.67;;;5.40;99.90;;;;;;5034132;28;20492;-70
2022/03/19 04:21:16;;;;;;;5.40;4.70;;;5.50;99.90;;;;;;5042307;28;20449;-69
2022/03/19 04:23:43;;;;;;;5.00;4.47;;;5.50;99.90;;;;;;5038795;28;21194;-70
2022/03/19 04:26:09;;;;;;;4.90;4.13;;;5.50;99.90;;;;;;5035544;28;20474;-69
2022/03/19 04:28:36;;;;;;;11.03;5.33;;;5.50;99.90;;;;;;5041836;28;20524;-69
2022/03/19 04:31:03;;;;;;;11.63;4.40;;;5.30;99.90;;;;;;5040534;28;20425;-70
2022/03/19 04:33:29;;;;;;;10.73;5.17;;;5.20;99.90;;;;;;5035503;28;20441;-70
2022/03/19 04:38:42;;;;;;;7.13;5.60;;;5.20;99.90;;;;;;5032518;28;20520;-70
2022/03/19 04:41:09;;;;;;;6.73;5.30;;;5.20;99.90;;;;;;5035633;28;20468;-70
2022/03/19 04:43:35;;;;;;;13.10;6.17;;;5.20;99.90;;;;;;5038784;28;20571;-71
2022/03/19 04:46:02;;;;;;;7.30;4.90;;;5.10;99.90;;;;;;5043268;28;20483;-70
2022/03/19 04:48:30;;;;;;;5.83;4.67;;;5.20;99.90;;;;;;5034816;28;20888;-70
2022/03/19 04:50:57;;;;;;;5.23;4.63;;;5.10;99.90;;;;;;5033636;28;20478;-70
2022/03/19 04:53:24;;;;;;;7.67;4.90;;;5.10;99.90;;;;;;5037499;28;21160;-69
2022/03/19 04:55:52;;;;;;;5.87;4.57;;;5.20;99.90;;;;;;5043275;28;20583;-69
2022/03/19 04:58:19;;;;;;;6.67;4.47;;;5.20;99.90;;;;;;5038187;28;20494;-69
2022/03/19 05:00:46;;;;;;;8.57;5.27;;;5.10;99.90;;;;;;5038532;28;20608;-70
2022/03/19 05:03:14;;;;;;;9.73;7.83;;;5.10;99.90;;;;;;5047751;28;20563;-69
2022/03/19 05:05:41;;;;;;;7.83;7.07;;;5.10;99.90;;;;;;5031479;28;20465;-70
2022/03/19 05:08:08;;;;;;;14.13;5.53;;;5.10;99.90;;;;;;5034651;28;20494;-70
2022/03/19 05:13:21;;;;;;;8.70;4.67;;;5.10;99.90;;;;;;5034460;28;20421;-69
2022/03/19 05:15:48;;;;;;;7.20;4.87;;;5.10;99.90;;;;;;5032251;28;20458;-70
2022/03/19 05:18:14;;;;;;;8.20;7.40;;;5.20;99.90;;;;;;5037539;28;21163;-70
2022/03/19 05:20:41;;;;;;;9.23;5.80;;;5.10;99.90;;;;;;5034315;28;20544;-70
2022/03/19 05:23:08;;;;;;;6.00;5.40;;;5.10;99.90;;;;;;5035155;28;20471;-70
2022/03/19 05:25:35;;;;;;;11.10;5.20;;;5.20;99.90;;;;;;5035937;28;20484;-70
2022/03/19 05:28:02;;;;;;;7.73;4.47;;;5.20;99.90;;;;;;5040103;28;20469;-70
2022/03/19 05:30:30;;;;;;;9.30;5.37;;;5.20;99.90;;;;;;5034669;28;20459;-71
2022/03/19 05:32:57;;;;;;;19.60;5.97;;;5.20;99.90;;;;;;5043158;28;20542;-69
2022/03/19 05:35:26;;;;;;;7.27;5.57;;;5.30;99.90;;;;;;5042077;28;20445;-69
2022/03/19 05:37:53;;;;;;;6.63;3.90;;;5.30;99.90;;;;;;5039096;28;20536;-69
2022/03/19 05:40:19;;;;;;;9.50;5.63;;;5.30;99.90;;;;;;5038367;28;20445;-70
2022/03/19 05:42:46;;;;;;;8.40;5.13;;;5.30;99.90;;;;;;5046490;28;20517;-69
2022/03/19 05:45:14;;;;;;;10.77;7.20;;;5.30;99.90;;;;;;5038299;28;20517;-69
2022/03/19 05:47:43;;;;;;;4.83;4.37;;;5.30;99.90;;;;;;5040735;28;20454;-72
2022/03/19 05:50:10;;;;;;;7.60;4.73;;;5.40;99.90;;;;;;5042662;28;20525;-70
2022/03/19 05:52:37;;;;;;;6.23;4.90;;;5.40;99.90;;;;;;5035407;28;20463;-69
2022/03/19 05:55:05;;;;;;;8.27;4.50;;;5.50;99.90;;;;;;5037504;28;20468;-69
2022/03/19 05:57:31;;;;;;;6.80;5.07;;;5.60;99.90;;;;;;5038148;28;20454;-70
2022/03/19 05:59:58;;;;;;;9.67;5.20;;;5.70;99.90;;;;;;5038071;28;20463;-71
2022/03/19 06:02:25;;;;;;;17.00;7.37;;;5.80;99.90;;;;;;5041474;28;20454;-70
2022/03/19 06:06:47;;;;;;;10.73;6.67;;;5.90;99.90;;;;;;5062643;27;20776;-70
2022/03/19 06:09:14;;;;;;;7.53;5.30;;;6.10;99.90;;;;;;5051382;28;20466;-71
2022/03/19 06:11:43;;;;;;;6.70;5.60;;;6.20;99.90;;;;;;5061195;28;20468;-70
2022/03/19 06:14:09;;;;;;;10.47;4.97;;;6.20;99.90;;;;;;5060930;28;21542;-70
2022/03/19 06:16:36;;;;;;;8.87;6.00;;;6.20;99.90;;;;;;5061183;28;20862;-71
2022/03/19 06:19:03;;;;;;;8.73;4.80;;;6.30;99.90;;;;;;5065168;28;20965;-70
2022/03/19 06:21:30;;;;;;;12.03;6.47;;;6.40;99.90;;;;;;5063662;28;20458;-70
2022/03/19 06:23:58;;;;;;;4.43;3.57;;;6.60;99.90;;;;;;5048337;28;20551;-69
2022/03/19 06:26:25;;;;;;;7.20;4.70;;;6.50;99.90;;;;;;5060776;28;20497;-70
2022/03/19 06:28:52;;;;;;;8.30;4.33;;;6.60;99.90;;;;;;5061025;28;20839;-70
2022/03/19 06:31:19;;;;;;;5.20;4.70;;;6.60;99.90;;;;;;5059805;28;20478;-69
2022/03/19 06:33:46;;;;;;;3.10;2.60;;;6.80;99.90;;;;;;5056420;28;20519;-70
2022/03/19 06:38:59;;;;;;;7.37;5.03;;;6.90;99.90;;;;;;5059419;28;21258;-69
2022/03/19 06:41:26;;;;;;;8.47;4.70;;;6.90;99.90;;;;;;5059722;28;20825;-70
2022/03/19 06:43:53;;;;;;;3.20;2.47;;;7.10;99.90;;;;;;5060078;28;20462;-69
2022/03/19 06:46:20;;;;;;;11.20;4.33;;;7.20;99.90;;;;;;5055033;28;20510;-69
2022/03/19 06:48:49;;;;;;;8.10;4.10;;;7.40;99.90;;;;;;5054701;28;20453;-69
2022/03/19 06:51:16;;;;;;;9.13;2.40;;;7.40;99.90;;;;;;5059693;28;20457;-69
2022/03/19 06:53:43;;;;;;;11.20;4.60;;;7.40;99.90;;;;;;5059221;28;20463;-69
2022/03/19 06:56:12;;;;;;;5.77;2.47;;;7.30;99.90;;;;;;5060447;28;20474;-69
2022/03/19 06:58:40;;;;;;;6.57;2.50;;;7.40;99.90;;;;;;5056328;28;20462;-69
2022/03/19 07:01:09;;;;;;;7.10;3.47;;;7.40;99.90;;;;;;5052691;28;20457;-69
2022/03/19 07:03:36;;;;;;;3.37;3.07;;;7.30;99.90;;;;;;5059561;28;21109;-70
2022/03/19 07:06:03;;;;;;;3.80;3.00;;;7.40;99.90;;;;;;5062173;28;20487;-69
2022/03/19 07:08:30;;;;;;;3.57;3.27;;;7.20;99.90;;;;;;5059671;28;20454;-70
2022/03/19 07:10:57;;;;;;;4.03;3.60;;;7.30;99.90;;;;;;5063320;28;20510;-70
2022/03/19 07:13:25;;;;;;;6.50;4.07;;;7.30;99.90;;;;;;5061277;28;20476;-70
2022/03/19 07:15:52;;;;;;;5.33;3.30;;;7.40;99.90;;;;;;5058748;28;20501;-69
2022/03/19 07:18:19;;;;;;;4.77;3.77;;;7.60;99.90;;;;;;5048745;28;20861;-69
2022/03/19 07:20:46;;;;;;;5.87;4.03;;;7.60;99.90;;;;;;5053289;28;20516;-69
2022/03/19 07:23:13;;;;;;;4.83;3.67;;;7.70;99.90;;;;;;5044529;28;20536;-70
2022/03/19 07:25:41;;;;;;;3.63;3.03;;;7.70;99.90;;;;;;5047912;28;20863;-70
2022/03/19 07:28:10;;;;;;;7.90;2.40;;;7.70;99.90;;;;;;5045297;28;20454;-69
2022/03/19 07:30:38;;;;;;;14.80;4.07;;;7.70;99.90;;;;;;5042574;28;20663;-70
2022/03/19 07:33:06;;;;;;;3.43;3.13;;;7.70;99.90;;;;;;5044867;28;20462;-71
2022/03/19 07:35:33;;;;;;;6.03;3.93;;;7.90;99.90;;;;;;5045936;28;20486;-70
2022/03/19 07:38:01;;;;;;;3.80;3.27;;;7.90;99.90;;;;;;5044746;28;21662;-71
2022/03/19 07:43:17;;;;;;;3.40;2.60;;;7.90;99.90;;;;;;5047125;28;20489;-71
2022/03/19 07:45:45;;;;;;;8.23;2.60;;;8.00;99.90;;;;;;5041599;28;20490;-71
2022/03/19 07:48:13;;;;;;;2.43;2.13;;;8.10;99.90;;;;;;5039748;28;20441;-70
2022/03/19 07:50:40;;;;;;;11.27;4.10;;;8.30;99.90;;;;;;5038513;28;20455;-70
2022/03/19 07:53:10;;;;;;;5.33;2.70;;;8.70;99.90;;;;;;5032346;28;20433;-71
2022/03/19 07:55:37;;;;;;;6.20;3.70;;;9.00;99.90;;;;;;5037802;28;20467;-68
2022/03/19 07:58:09;;;;;;;3.17;2.87;;;9.00;99.90;;;;;;5030516;28;20467;-69
2022/03/19 08:00:35;;;;;;;3.10;2.03;;;9.10;99.90;;;;;;5032049;28;20462;-71
2022/03/19 08:03:03;;;;;;;3.57;2.13;;;9.10;99.90;;;;;;5038400;28;20520;-70
2022/03/19 08:05:30;;;;;;;3.63;3.00;;;9.20;99.90;;;;;;5032896;28;20583;-70
2022/03/19 08:07:57;;;;;;;10.00;3.00;;;9.20;99.90;;;;;;5033958;28;20518;-70
2022/03/19 08:10:24;;;;;;;7.80;3.60;;;9.10;99.90;;;;;;5038678;28;20524;-70
2022/03/19 08:12:58;;;;;;;6.40;4.87;;;9.30;99.90;;;;;;5038510;28;20549;-71
2022/03/19 08:15:25;;;;;;;6.60;3.10;;;9.60;99.90;;;;;;5044856;28;20506;-70
2022/03/19 08:17:51;;;;;;;5.73;4.20;;;9.90;99.90;;;;;;5047294;28;20446;-70
2022/03/19 08:20:19;;;;;;;9.90;5.10;;;10.20;99.90;;;;;;5042881;28;20455;-70
2022/03/19 08:22:47;;;;;;;2.60;2.40;;;10.60;99.90;;;;;;5029857;28;20466;-70
2022/03/19 08:25:14;;;;;;;4.10;2.73;;;11.20;99.90;;;;;;5030577;28;20520;-70
2022/03/19 08:27:40;;;;;;;2.63;2.30;;;11.10;99.90;;;;;;5039710;28;20455;-70
2022/03/19 08:30:08;;;;;;;2.63;2.30;;;10.90;99.90;;;;;;5039619;28;20544;-71
2022/03/19 08:32:35;;;;;;;7.37;2.53;;;11.10;99.90;;;;;;5038565;28;20459;-70
2022/03/19 08:35:02;;;;;;;3.20;2.10;;;11.30;99.90;;;;;;5042165;28;20482;-71
2022/03/19 08:37:32;;;;;;;4.20;2.77;;;11.40;99.90;;;;;;5043766;28;20459;-70
2022/03/19 08:40:16;;;;;;;4.07;2.00;;;11.50;99.90;;;;;;5047263;28;20459;-71
2022/03/19 08:42:52;;;;;;;2.20;1.90;;;11.50;99.90;;;;;;5041961;28;20512;-71
2022/03/19 08:45:19;;;;;;;2.00;1.70;;;12.10;99.90;;;;;;5042237;28;21026;-71
2022/03/19 08:47:46;;;;;;;9.63;2.77;;;12.20;99.90;;;;;;5043804;28;20461;-71
2022/03/19 08:50:13;;;;;;;5.23;1.80;;;12.40;99.90;;;;;;5044337;28;20470;-70
2022/03/19 08:52:42;;;;;;;4.20;3.17;;;12.60;99.90;;;;;;5037913;28;21000;-71
2022/03/19 08:55:10;;;;;;;3.90;3.60;;;12.90;99.90;;;;;;5046301;28;20483;-70
2022/03/19 08:57:37;;;;;;;2.70;1.57;;;13.20;99.90;;;;;;5044870;28;20910;-71
2022/03/19 09:00:05;;;;;;;3.93;2.23;;;13.20;99.90;;;;;;5044023;28;20462;-70
2022/03/19 09:02:31;;;;;;;6.37;2.40;;;13.60;99.90;;;;;;5044339;28;20964;-70
2022/03/19 09:04:58;;;;;;;11.33;2.20;;;13.80;99.90;;;;;;5038271;28;20495;-69
2022/03/19 09:07:25;;;;;;;2.70;1.73;;;13.70;99.90;;;;;;5031387;28;20479;-71
2022/03/19 09:09:56;;;;;;;3.33;2.30;;;13.80;99.90;;;;;;5043226;28;20467;-72
2022/03/19 09:12:25;;;;;;;4.33;2.60;;;14.40;99.90;;;;;;5027245;28;21428;-71
2022/03/19 09:14:52;;;;;;;3.37;2.30;;;14.90;99.90;;;;;;5039554;28;20483;-68
2022/03/19 09:17:19;;;;;;;7.87;2.30;;;15.20;99.90;;;;;;5054854;28;20465;-70
2022/03/19 09:19:45;;;;;;;3.00;2.67;;;16.00;97.70;;;;;;5049104;28;20463;-69
2022/03/19 09:22:12;;;;;;;8.13;3.10;;;15.40;94.70;;;;;;5051607;28;20469;-69
2022/03/19 09:24:39;;;;;;;2.60;2.23;;;15.80;94.60;;;;;;5055517;28;21170;-68
2022/03/19 09:27:07;;;;;;;2.83;2.23;;;16.40;91.90;;;;;;5057343;28;20475;-70
2022/03/19 09:29:34;;;;;;;4.63;1.90;;;16.30;89.70;;;;;;5053726;28;20453;-69
2022/03/19 09:32:01;;;;;;;3.23;2.50;;;16.80;82.70;;;;;;5053774;28;20467;-67
2022/03/19 09:34:28;;;;;;;4.50;2.93;;;16.30;83.30;;;;;;5051414;28;20487;-69
2022/03/19 09:36:54;;;;;;;3.17;2.87;;;16.50;80.00;;;;;;5056975;28;20471;-69
2022/03/19 09:39:21;;;;;;;2.00;1.63;;;16.50;75.50;;;;;;5056533;28;20459;-69
2022/03/19 09:41:48;;;;;;;5.47;2.00;;;16.50;71.90;;;;;;5051861;28;24556;-70
2022/03/19 09:44:17;;;;;;;4.33;1.70;;;16.00;68.20;;;;;;5055507;28;20469;-69
2022/03/19 09:46:46;;;;;;;2.47;1.43;;;15.70;67.90;;;;;;5054386;28;20612;-69
2022/03/19 09:49:13;;;;;;;2.27;1.70;;;15.80;68.60;;;;;;5053741;28;20509;-69
2022/03/19 09:51:40;;;;;;;6.23;3.20;;;16.30;68.90;;;;;;5056090;28;20463;-70
2022/03/19 09:54:08;;;;;;;4.33;3.80;;;16.60;69.00;;;;;;5054001;28;20458;-70
2022/03/19 09:56:37;;;;;;;2.30;2.10;;;16.40;64.50;;;;;;5062628;28;20454;-69
2022/03/19 09:59:04;;;;;;;2.17;1.53;;;16.30;64.00;;;;;;5051869;28;20513;-69
2022/03/19 10:01:33;;;;;;;1.40;1.10;;;16.50;61.80;;;;;;5053135;28;20466;-69
2022/03/19 10:04:07;;;;;;;2.00;1.80;;;16.20;61.80;;;;;;5052580;28;20461;-69
2022/03/19 10:09:19;;;;;;;4.10;2.30;;;16.80;59.80;;;;;;5055542;28;20453;-68
2022/03/19 10:11:49;;;;;;;1.70;1.40;;;17.90;59.80;;;;;;5045416;28;20504;-68
2022/03/19 10:14:22;;;;;;;4.23;3.57;;;18.00;57.10;;;;;;5045577;28;20952;-68
2022/03/19 10:16:52;;;;;;;1.93;1.60;;;18.00;54.80;;;;;;5047395;28;20461;-69
2022/03/19 10:19:19;;;;;;;2.73;1.70;;;18.60;53.90;;;;;;5052947;28;20458;-69
2022/03/19 10:21:46;;;;;;;8.70;1.53;;;18.50;49.80;;;;;;5056922;28;20462;-69
2022/03/19 10:24:24;;;;;;;3.37;1.60;;;17.60;50.60;;;;;;5031304;28;20458;-69
2022/03/19 10:26:51;;;;;;;1.70;1.17;;;17.70;51.90;;;;;;5046562;28;20475;-67
2022/03/19 10:29:28;;;;;;;4.27;1.80;;;17.80;51.30;;;;;;5052171;28;20465;-69
2022/03/19 10:32:00;;;;;;;3.50;1.50;;;18.10;52.30;;;;;;5051464;28;20998;-69
2022/03/19 10:34:29;;;;;;;1.93;1.50;;;18.40;49.40;;;;;;5057308;28;20455;-69
2022/03/19 10:36:55;;;;;;;2.87;2.17;;;17.80;48.60;;;;;;5044451;28;20447;-69
2022/03/19 10:39:25;;;;;;;2.77;2.20;;;17.60;49.40;;;;;;5046078;28;20524;-69
2022/03/19 10:41:52;;;;;;;1.73;1.20;;;18.00;50.60;;;;;;5047174;28;20599;-68
2022/03/19 10:44:21;;;;;;;14.43;2.27;;;18.80;48.60;;;;;;5024420;28;20523;-69
2022/03/19 10:46:49;;;;;;;3.57;1.80;;;18.80;47.90;;;;;;5025705;28;21564;-67
2022/03/19 10:49:19;;;;;;;4.53;2.40;;;18.50;48.70;;;;;;5030630;28;20459;-69
2022/03/19 10:51:46;;;;;;;4.00;1.87;;;19.10;47.80;;;;;;5038115;28;20462;-68
2022/03/19 10:54:15;;;;;;;3.03;1.80;;;18.80;46.80;;;;;;5038793;28;20531;-69
2022/03/19 10:56:42;;;;;;;3.43;1.53;;;18.70;46.60;;;;;;5047210;28;20446;-69
2022/03/19 10:59:09;;;;;;;2.50;1.33;;;18.70;45.70;;;;;;5040156;28;20461;-68
2022/03/19 11:01:36;;;;;;;1.87;1.67;;;18.70;45.40;;;;;;5038186;28;21046;-69
2022/03/19 11:04:05;;;;;;;1.17;0.90;;;19.20;45.60;;;;;;5049710;28;20527;-68
2022/03/19 11:06:37;;;;;;;4.40;2.23;;;19.10;44.80;;;;;;5041145;28;20494;-69
2022/03/19 11:09:06;;;;;;;3.80;1.60;;;18.40;44.90;;;;;;5041299;28;20438;-68
2022/03/19 11:11:40;;;;;;;2.33;1.10;;;18.20;46.60;;;;;;5037802;28;21134;-68
2022/03/19 11:14:09;;;;;;;2.57;2.10;;;18.30;46.70;;;;;;5043210;28;20454;-68
2022/03/19 11:16:38;;;;;;;3.63;1.47;;;18.80;46.70;;;;;;5032324;28;20482;-69
2022/03/19 11:19:06;;;;;;;3.30;1.83;;;18.90;45.60;;;;;;5042839;28;20470;-69
2022/03/19 11:21:34;;;;;;;3.40;2.33;;;18.70;46.40;;;;;;5037516;28;21046;-67
2022/03/19 11:24:08;;;;;;;2.17;1.30;;;19.00;47.20;;;;;;5038534;28;21060;-68
2022/03/19 11:26:36;;;;;;;3.50;2.03;;;18.80;47.00;;;;;;5021913;28;20479;-68
2022/03/19 11:29:05;;;;;;;2.63;1.50;;;19.40;47.10;;;;;;5039456;28;20520;-68
2022/03/19 11:31:33;;;;;;;3.53;2.50;;;19.50;45.50;;;;;;5042014;28;20462;-68
2022/03/19 11:34:14;;;;;;;3.40;2.00;;;19.10;46.50;;;;;;5043677;28;20463;-68
2022/03/19 11:36:56;;;;;;;3.20;1.57;;;19.70;46.40;;;;;;5029190;28;20454;-66
2022/03/19 11:39:23;;;;;;;1.77;1.37;;;19.30;44.80;;;;;;5043689;28;20471;-68
2022/03/19 11:41:51;;;;;;;1.40;1.10;;;20.10;45.70;;;;;;5045778;28;21003;-68
2022/03/19 11:44:23;;;;;;;1.93;1.70;;;20.80;42.90;;;;;;5034078;28;20505;-68
2022/03/19 11:46:57;;;;;;;3.97;2.00;;;19.50;42.00;;;;;;5028336;28;20854;-69
2022/03/19 11:49:50;;;;;;;1.60;1.30;;;19.50;42.70;;;;;;5042024;28;20469;-69
2022/03/19 11:52:19;;;;;;;2.93;1.50;;;20.00;42.70;;;;;;5037732;28;20543;-68
2022/03/19 11:55:07;;;;;;;1.20;1.00;;;20.40;41.60;;;;;;5042539;28;20476;-68
2022/03/19 11:57:55;;;;;;;1.33;1.10;;;19.70;40.70;;;;;;5043197;28;20458;-68
2022/03/19 12:00:23;;;;;;;1.30;0.90;;;19.30;40.60;;;;;;5035413;28;20455;-68
2022/03/19 12:03:07;;;;;;;3.20;1.20;;;19.20;40.70;;;;;;5042440;28;20983;-68
2022/03/19 12:05:36;;;;;;;3.00;1.60;;;19.60;42.00;;;;;;5035434;28;20525;-69
2022/03/19 12:08:09;;;;;;;2.10;1.20;;;19.90;42.70;;;;;;5040216;28;21212;-68
2022/03/19 12:10:54;;;;;;;1.83;1.07;;;19.60;41.50;;;;;;5028584;28;20459;-68
2022/03/19 12:13:47;;;;;;;3.50;1.93;;;18.80;41.80;;;;;;5039761;28;20438;-68
2022/03/19 12:16:34;;;;;;;2.40;1.80;;;19.20;42.00;;;;;;5042414;28;20901;-70
2022/03/19 12:19:01;;;;;;;2.80;1.60;;;19.80;42.90;;;;;;5042969;28;20462;-67
2022/03/19 12:21:33;;;;;;;2.80;1.60;;;20.60;40.50;;;;;;5032246;28;20455;-68
2022/03/19 12:24:33;;;;;;;1.73;1.30;;;20.00;40.80;;;;;;5038106;28;21188;-67
2022/03/19 12:27:00;;;;;;;2.30;1.37;;;19.40;40.80;;;;;;5032436;28;20490;-70
2022/03/19 12:29:31;;;;;;;4.80;1.80;;;19.30;41.10;;;;;;5041052;28;20939;-70
2022/03/19 12:31:57;;;;;;;1.97;1.50;;;19.40;40.40;;;;;;5041977;28;23691;-67
2022/03/19 12:34:27;;;;;;;1.50;1.00;;;19.20;40.50;;;;;;5040040;28;21089;-70
2022/03/19 12:36:59;;;;;;;2.03;1.00;;;19.30;39.80;;;;;;5034635;28;20459;-69
2022/03/19 12:39:26;;;;;;;2.07;1.47;;;18.90;39.70;;;;;;5038216;28;20482;-69
2022/03/19 12:41:57;;;;;;;1.77;1.00;;;18.40;39.00;;;;;;5041957;28;20504;-69
2022/03/19 12:44:26;;;;;;;1.17;0.87;;;18.30;39.60;;;;;;5033798;28;20459;-68
2022/03/19 12:47:00;;;;;;;3.27;1.60;;;18.20;39.20;;;;;;5034557;28;20489;-70
2022/03/19 12:49:29;;;;;;;1.83;0.90;;;18.40;38.50;;;;;;5037124;28;20485;-69
2022/03/19 12:51:56;;;;;;;1.30;0.97;;;18.30;39.00;;;;;;5025697;28;20537;-67
2022/03/19 12:54:26;;;;;;;1.60;1.13;;;19.10;38.90;;;;;;5028881;28;20574;-68
2022/03/19 12:56:56;;;;;;;1.20;0.87;;;18.70;38.70;;;;;;5035815;28;21119;-68
2022/03/19 12:59:25;;;;;;;1.30;0.97;;;18.40;38.50;;;;;;5032774;28;20550;-68
2022/03/19 13:01:52;;;;;;;3.20;1.30;;;18.10;38.50;;;;;;5030396;28;20452;-69
2022/03/19 13:04:21;;;;;;;1.50;0.80;;;18.70;39.20;;;;;;5034537;28;20454;-69
2022/03/19 13:06:48;;;;;;;1.50;1.00;;;18.50;39.10;;;;;;5042914;28;20463;-70
2022/03/19 13:09:15;;;;;;;3.73;2.20;;;18.60;39.30;;;;;;5045500;28;20550;-68
2022/03/19 13:11:44;;;;;;;1.40;1.00;;;18.10;39.00;;;;;;5037530;28;20569;-67
2022/03/19 13:14:14;;;;;;;5.83;2.73;;;17.90;39.10;;;;;;5041358;28;21356;-67
2022/03/19 13:16:43;;;;;;;2.30;1.20;;;18.30;40.00;;;;;;5033434;28;21631;-68